TimeEDT,TemperatureF,Dew PointF,Humidity,Sea Level PressureIn,VisibilityMPH,Wind Direction,Wind SpeedMPH,Gust SpeedMPH,PrecipitationIn,Events,Conditions,WindDirDegrees,DateUTC
12:15 AM,52.7,38.3,58,30.31,10.0,Calm,Calm,-,N/A,,Overcast,0,2013-04-23 04:15:00
12:35 AM,52.3,38.7,60,30.31,10.0,ENE,3.5,-,N/A,,Overcast,60,2013-04-23 04:35:00
12:55 AM,52.2,38.5,60,30.30,10.0,NE,4.6,-,N/A,,Overcast,50,2013-04-23 04:55:00
1:15 AM,52.0,38.5,60,30.30,10.0,NE,5.8,-,N/A,,Overcast,50,2013-04-23 05:15:00
1:35 AM,51.8,39.0,62,30.30,10.0,NE,3.5,-,N/A,,Overcast,40,2013-04-23 05:35:00
1:55 AM,51.3,39.2,63,30.30,10.0,ENE,4.6,-,N/A,,Overcast,60,2013-04-23 05:55:00
2:15 AM,51.1,39.6,65,30.30,10.0,Calm,Calm,-,N/A,,Overcast,0,2013-04-23 06:15:00
2:35 AM,50.9,39.9,66,30.29,10.0,Calm,Calm,-,N/A,,Overcast,0,2013-04-23 06:35:00
2:55 AM,50.4,39.9,67,30.28,10.0,NNE,5.8,-,N/A,,Drizzle,30,2013-04-23 06:55:00
3:15 AM,49.6,40.5,71,30.28,10.0,NE,4.6,-,N/A,,Overcast,40,2013-04-23 07:15:00
3:35 AM,49.6,40.6,71,30.27,10.0,NNE,4.6,-,N/A,,Overcast,30,2013-04-23 07:35:00
3:55 AM,49.3,40.8,73,30.27,10.0,Calm,Calm,-,N/A,,Overcast,0,2013-04-23 07:55:00
4:15 AM,49.3,41.0,73,30.27,10.0,NNE,4.6,-,N/A,,Overcast,20,2013-04-23 08:15:00
4:35 AM,48.6,41.9,78,30.27,7.0,Calm,Calm,-,N/A,,Heavy Drizzle,0,2013-04-23 08:35:00
4:55 AM,46.8,43.2,87,30.27,5.0,Calm,Calm,-,N/A,,Light Drizzle,0,2013-04-23 08:55:00
5:15 AM,46.6,43.3,88,30.27,10.0,Calm,Calm,-,N/A,,Overcast,0,2013-04-23 09:15:00
5:35 AM,46.6,43.2,88,30.26,10.0,North,3.5,-,N/A,,Overcast,10,2013-04-23 09:35:00
5:55 AM,46.6,43.5,89,30.26,10.0,Calm,Calm,-,N/A,,Overcast,0,2013-04-23 09:55:00
6:15 AM,46.6,43.3,88,30.26,10.0,Calm,Calm,-,N/A,,Overcast,0,2013-04-23 10:15:00
6:35 AM,46.6,43.0,87,30.26,10.0,Calm,Calm,-,N/A,,Overcast,0,2013-04-23 10:35:00
6:55 AM,46.8,42.8,86,30.26,10.0,North,3.5,-,N/A,,Overcast,10,2013-04-23 10:55:00
7:15 AM,47.1,42.6,84,30.27,10.0,Calm,Calm,-,N/A,,Overcast,0,2013-04-23 11:15:00
7:35 AM,47.5,42.8,84,30.26,10.0,Calm,Calm,-,N/A,,Overcast,0,2013-04-23 11:35:00
7:55 AM,48.2,42.8,82,30.27,10.0,NNE,3.5,-,N/A,,Overcast,30,2013-04-23 11:55:00
8:15 AM,48.9,42.8,79,30.27,10.0,NE,4.6,-,N/A,,Overcast,40,2013-04-23 12:15:00
8:35 AM,49.3,42.4,77,30.26,10.0,NE,6.9,-,N/A,,Overcast,40,2013-04-23 12:35:00
8:55 AM,49.3,42.3,77,30.27,10.0,Calm,Calm,-,N/A,,Overcast,0,2013-04-23 12:55:00
9:15 AM,50.5,42.6,74,30.26,10.0,NE,3.5,-,N/A,,Overcast,40,2013-04-23 13:15:00
9:35 AM,51.1,42.3,72,30.26,10.0,Calm,Calm,-,N/A,,Overcast,0,2013-04-23 13:35:00
9:55 AM,53.1,43.3,70,30.27,10.0,NNE,4.6,-,N/A,,Mostly Cloudy,30,2013-04-23 13:55:00
10:15 AM,54.0,43.0,66,30.27,10.0,NNE,3.5,-,N/A,,Scattered Clouds,30,2013-04-23 14:15:00
10:35 AM,54.7,43.2,65,30.27,10.0,Calm,Calm,-,N/A,,Mostly Cloudy,0,2013-04-23 14:35:00
10:55 AM,56.3,43.9,63,30.27,10.0,Calm,Calm,-,N/A,,Overcast,0,2013-04-23 14:55:00
11:15 AM,56.5,43.5,62,30.27,10.0,Calm,Calm,-,N/A,,Overcast,0,2013-04-23 15:15:00
11:35 AM,57.6,43.9,60,30.26,10.0,Calm,Calm,-,N/A,,Overcast,0,2013-04-23 15:35:00
11:55 AM,57.2,44.1,62,30.28,10.0,West,3.5,-,N/A,,Overcast,260,2013-04-23 15:55:00
12:15 PM,59.2,44.6,58,30.26,10.0,Calm,Calm,-,N/A,,Overcast,0,2013-04-23 16:15:00
12:35 PM,59.5,44.2,57,30.25,10.0,Calm,Calm,-,N/A,,Mostly Cloudy,0,2013-04-23 16:35:00
12:55 PM,60.6,45.1,57,30.23,10.0,Calm,Calm,-,N/A,,Scattered Clouds,0,2013-04-23 16:55:00
1:15 PM,63.0,45.5,53,30.22,10.0,ESE,3.5,-,N/A,,Clear,110,2013-04-23 17:15:00
1:35 PM,62.1,45.5,55,30.21,10.0,Calm,Calm,-,N/A,,Clear,0,2013-04-23 17:35:00
1:55 PM,63.0,46.0,54,30.20,10.0,SSE,4.6,-,N/A,,Clear,150,2013-04-23 17:55:00
2:15 PM,63.9,46.6,53,30.19,10.0,Calm,Calm,-,N/A,,Scattered Clouds,0,2013-04-23 18:15:00
2:35 PM,64.9,47.3,53,30.18,10.0,Calm,Calm,-,N/A,,Scattered Clouds,0,2013-04-23 18:35:00
2:55 PM,66.2,47.3,51,30.17,10.0,Calm,Calm,-,N/A,,Clear,0,2013-04-23 18:55:00
3:15 PM,66.6,47.1,50,30.17,10.0,SSW,5.8,-,N/A,,Clear,210,2013-04-23 19:15:00
3:35 PM,67.3,47.3,49,30.15,10.0,South,5.8,-,N/A,,Clear,170,2013-04-23 19:35:00
3:55 PM,68.9,48.2,48,30.14,10.0,SSE,4.6,-,N/A,,Clear,160,2013-04-23 19:55:00
4:15 PM,68.0,46.9,47,30.14,10.0,Calm,Calm,-,N/A,,Clear,0,2013-04-23 20:15:00
4:35 PM,68.2,46.8,46,30.13,10.0,Calm,Calm,-,N/A,,Clear,0,2013-04-23 20:35:00
4:55 PM,69.1,47.7,46,30.12,10.0,South,4.6,-,N/A,,Clear,190,2013-04-23 20:55:00
5:15 PM,68.9,47.1,46,30.12,10.0,Calm,Calm,-,N/A,,Clear,0,2013-04-23 21:15:00
5:35 PM,68.5,46.2,45,30.12,10.0,SW,3.5,-,N/A,,Clear,220,2013-04-23 21:35:00
5:55 PM,68.5,46.8,46,30.11,10.0,SW,4.6,-,N/A,,Clear,230,2013-04-23 21:55:00
6:15 PM,68.7,48.2,48,30.11,10.0,Calm,Calm,-,N/A,,Clear,0,2013-04-23 22:15:00
6:35 PM,68.5,48.2,48,30.11,10.0,SE,3.5,-,N/A,,Clear,140,2013-04-23 22:35:00
6:55 PM,66.6,48.2,52,30.11,10.0,SE,3.5,-,N/A,,Clear,130,2013-04-23 22:55:00
7:15 PM,65.8,48.6,54,30.11,10.0,Calm,Calm,-,N/A,,Clear,0,2013-04-23 23:15:00
7:35 PM,63.9,51.3,64,30.12,10.0,Calm,Calm,-,N/A,,Clear,0,2013-04-23 23:35:00
7:55 PM,58.6,52.2,79,30.12,10.0,Calm,Calm,-,N/A,,Clear,0,2013-04-23 23:55:00
8:15 PM,55.9,51.4,85,30.12,10.0,Calm,Calm,-,N/A,,Clear,0,2013-04-24 00:15:00
8:35 PM,54.5,51.4,89,30.13,10.0,Calm,Calm,-,N/A,,Clear,0,2013-04-24 00:35:00
8:55 PM,53.6,50.9,91,30.13,10.0,Calm,Calm,-,N/A,,Clear,0,2013-04-24 00:55:00
9:15 PM,52.0,49.8,92,30.13,10.0,Calm,Calm,-,N/A,,Clear,0,2013-04-24 01:15:00
9:35 PM,51.6,49.8,94,30.14,10.0,Calm,Calm,-,N/A,,Clear,0,2013-04-24 01:35:00
9:55 PM,50.4,49.1,95,30.13,10.0,Calm,Calm,-,N/A,,Clear,0,2013-04-24 01:55:00
10:15 PM,51.6,49.6,93,30.13,10.0,Calm,Calm,-,N/A,,Clear,0,2013-04-24 02:15:00
10:35 PM,51.4,49.1,92,30.12,10.0,Calm,Calm,-,N/A,,Clear,0,2013-04-24 02:35:00
10:55 PM,53.1,50.2,90,30.13,10.0,Calm,Calm,-,N/A,,Clear,0,2013-04-24 02:55:00
11:15 PM,54.5,50.2,85,30.13,10.0,Calm,Calm,-,N/A,,Clear,0,2013-04-24 03:15:00
11:35 PM,52.7,50.0,91,30.13,10.0,Calm,Calm,-,N/A,,Clear,0,2013-04-24 03:35:00
11:55 PM,52.3,49.5,90,30.13,10.0,Calm,Calm,-,N/A,,Clear,0,2013-04-24 03:55:00